createdAt,value
2016-11-30T00:00:00.943Z,966.41
2016-11-30T00:01:00.955Z,966.4
2016-11-30T00:02:00.963Z,966.4
2016-11-30T00:03:00.975Z,966.44
2016-11-30T00:04:00.985Z,966.4
2016-11-30T00:05:00.999Z,966.43
2016-11-30T00:06:01.006Z,966.44
2016-11-30T00:07:01.017Z,966.4
2016-11-30T00:08:01.028Z,966.43
2016-11-30T00:09:01.038Z,966.42
2016-11-30T00:10:01.049Z,966.42
2016-11-30T00:11:01.059Z,966.41
2016-11-30T00:12:01.073Z,966.39
2016-11-30T00:13:01.080Z,966.34
2016-11-30T00:14:01.091Z,966.43
2016-11-30T00:15:01.101Z,966.4
2016-11-30T00:16:01.111Z,966.39
2016-11-30T00:17:01.121Z,966.4
2016-11-30T00:18:01.132Z,966.38
2016-11-30T00:19:01.144Z,966.4
2016-11-30T00:20:01.153Z,966.4
2016-11-30T00:21:01.164Z,966.39
2016-11-30T00:22:01.174Z,966.37
2016-11-30T00:23:01.184Z,966.37
2016-11-30T00:24:01.195Z,966.4
2016-11-30T00:25:01.205Z,966.37
2016-11-30T00:26:01.218Z,966.38
2016-11-30T00:27:01.225Z,966.4
2016-11-30T00:28:01.237Z,966.4
2016-11-30T00:29:01.298Z,966.38
2016-11-30T00:30:01.257Z,966.38
2016-11-30T00:31:01.267Z,966.4
2016-11-30T00:32:01.279Z,966.41
2016-11-30T00:33:01.309Z,966.43
2016-11-30T00:34:01.298Z,966.45
2016-11-30T00:35:01.309Z,966.42
2016-11-30T00:36:01.319Z,966.45
2016-11-30T00:37:01.329Z,966.42
2016-11-30T00:38:01.340Z,966.41
2016-11-30T00:39:01.350Z,966.41
2016-11-30T00:40:01.374Z,966.47
2016-11-30T00:41:01.370Z,966.45
2016-11-30T00:42:01.380Z,966.46
2016-11-30T00:43:01.391Z,966.51
2016-11-30T00:44:01.402Z,966.55
2016-11-30T00:45:01.411Z,966.55
2016-11-30T00:46:01.421Z,966.59
2016-11-30T00:47:01.439Z,966.61
2016-11-30T00:48:01.443Z,966.61
2016-11-30T00:49:01.452Z,966.59
2016-11-30T00:50:01.462Z,966.6
2016-11-30T00:51:01.473Z,966.58
2016-11-30T00:52:01.484Z,966.59
2016-11-30T00:53:01.494Z,966.57
2016-11-30T00:54:01.505Z,966.6
2016-11-30T00:55:01.515Z,966.6
2016-11-30T00:56:01.525Z,966.57
2016-11-30T00:57:01.535Z,966.61
2016-11-30T00:58:01.546Z,966.59
2016-11-30T00:59:01.556Z,966.6
2016-11-30T01:00:01.565Z,966.58
2016-11-30T01:01:01.577Z,966.52
2016-11-30T01:02:01.586Z,966.55
2016-11-30T01:03:01.596Z,966.54
2016-11-30T01:04:01.607Z,966.53
2016-11-30T01:05:01.616Z,966.52
2016-11-30T01:06:01.627Z,966.45
2016-11-30T01:07:01.636Z,966.48
2016-11-30T01:08:01.652Z,966.47
2016-11-30T01:09:01.657Z,966.48
2016-11-30T01:10:01.671Z,966.46
2016-11-30T01:11:01.677Z,966.47
2016-11-30T01:12:01.687Z,966.54
2016-11-30T01:13:01.698Z,966.5
2016-11-30T01:14:01.709Z,966.5
2016-11-30T01:15:01.720Z,966.53
2016-11-30T01:16:01.730Z,966.51
2016-11-30T01:17:01.739Z,966.53
2016-11-30T01:18:01.748Z,966.52
2016-11-30T01:19:01.794Z,966.5
2016-11-30T01:20:01.769Z,966.51
2016-11-30T01:21:01.783Z,966.51
2016-11-30T01:22:01.789Z,966.48
2016-11-30T01:23:01.799Z,966.44
2016-11-30T01:24:01.810Z,966.47
2016-11-30T01:25:01.819Z,966.45
2016-11-30T01:26:01.830Z,966.44
2016-11-30T01:27:01.840Z,966.49
2016-11-30T01:28:01.851Z,966.48
2016-11-30T01:29:01.860Z,966.45
2016-11-30T01:30:01.871Z,966.46
2016-11-30T01:31:01.881Z,966.47
2016-11-30T01:32:01.891Z,966.47
2016-11-30T01:33:01.901Z,966.49
2016-11-30T01:34:01.911Z,966.49
2016-11-30T01:35:01.922Z,966.53
2016-11-30T01:36:01.931Z,966.52
2016-11-30T01:37:01.941Z,966.5
2016-11-30T01:38:01.952Z,966.51
2016-11-30T01:39:01.963Z,966.51
2016-11-30T01:40:01.971Z,966.51
2016-11-30T01:41:01.982Z,966.51
2016-11-30T01:42:01.992Z,966.54
2016-11-30T01:43:02.003Z,966.49
2016-11-30T01:44:02.012Z,966.53
2016-11-30T01:45:02.022Z,966.53
2016-11-30T01:46:02.033Z,966.5
2016-11-30T01:47:02.042Z,966.52
2016-11-30T01:48:02.052Z,966.51
2016-11-30T01:49:02.062Z,966.5
2016-11-30T01:50:02.077Z,966.5
2016-11-30T01:51:02.082Z,966.47
2016-11-30T01:52:02.092Z,966.47
2016-11-30T01:53:02.103Z,966.5
2016-11-30T01:54:02.113Z,966.49
2016-11-30T01:55:02.122Z,966.46
2016-11-30T01:56:02.134Z,966.46
2016-11-30T01:57:02.143Z,966.44
2016-11-30T01:58:02.152Z,966.44
2016-11-30T01:59:02.162Z,966.43
2016-11-30T02:00:02.173Z,966.4
2016-11-30T02:01:02.183Z,966.33
2016-11-30T02:02:02.192Z,966.28
2016-11-30T02:03:02.202Z,966.29
2016-11-30T02:04:02.214Z,966.3
2016-11-30T02:05:02.224Z,966.32
2016-11-30T02:06:02.237Z,966.29
2016-11-30T02:07:02.241Z,966.34
2016-11-30T02:08:02.252Z,966.28
2016-11-30T02:09:02.261Z,966.28
2016-11-30T02:10:02.272Z,966.29
2016-11-30T02:11:02.282Z,966.28
2016-11-30T02:12:02.316Z,966.28
2016-11-30T02:13:02.301Z,966.3
2016-11-30T02:14:02.311Z,966.28
2016-11-30T02:15:02.323Z,966.27
2016-11-30T02:16:02.331Z,966.27
2016-11-30T02:17:02.340Z,966.25
2016-11-30T02:18:02.353Z,966.28
2016-11-30T02:19:02.381Z,966.22
2016-11-30T02:20:02.370Z,966.18
2016-11-30T02:21:02.380Z,966.19
2016-11-30T02:22:02.391Z,966.16
2016-11-30T02:23:02.402Z,966.18
2016-11-30T02:24:02.411Z,966.17
2016-11-30T02:25:02.420Z,966.14
2016-11-30T02:26:02.446Z,966.13
2016-11-30T02:27:02.441Z,966.11
2016-11-30T02:28:02.450Z,966.08
2016-11-30T02:29:02.461Z,966.09
2016-11-30T02:30:02.470Z,966.1
2016-11-30T02:31:02.480Z,966.1
2016-11-30T02:32:02.490Z,966.02
2016-11-30T02:33:02.510Z,965.98
2016-11-30T02:34:02.510Z,965.96
2016-11-30T02:35:02.519Z,965.97
2016-11-30T02:36:02.529Z,965.95
2016-11-30T02:37:02.539Z,965.94
2016-11-30T02:38:02.549Z,965.95
2016-11-30T02:39:02.559Z,965.97
2016-11-30T02:40:02.576Z,965.93
2016-11-30T02:41:02.579Z,965.96
2016-11-30T02:42:02.588Z,965.99
2016-11-30T02:43:02.598Z,965.98
2016-11-30T02:44:02.609Z,965.98
2016-11-30T02:45:02.618Z,966.02
2016-11-30T02:46:02.628Z,966.05
2016-11-30T02:47:02.641Z,966.06
2016-11-30T02:48:02.648Z,966.08
2016-11-30T02:49:02.657Z,966.12
2016-11-30T02:50:02.668Z,966.1
2016-11-30T02:51:02.677Z,966.12
2016-11-30T02:52:02.687Z,966.14
2016-11-30T02:53:02.697Z,966.13
2016-11-30T02:54:02.707Z,966.12
2016-11-30T02:55:02.718Z,966.13
2016-11-30T02:56:02.728Z,966.12
2016-11-30T02:57:02.737Z,966.07
2016-11-30T02:58:02.747Z,966.02
2016-11-30T02:59:02.757Z,965.99
2016-11-30T03:00:02.766Z,966.03
2016-11-30T03:01:02.778Z,965.99
2016-11-30T03:02:02.787Z,965.97
2016-11-30T03:03:02.798Z,965.96
2016-11-30T03:04:02.807Z,966.01
2016-11-30T03:05:02.818Z,965.98
2016-11-30T03:06:02.827Z,965.96
2016-11-30T03:07:02.837Z,965.99
2016-11-30T03:08:02.848Z,966.03
2016-11-30T03:09:02.856Z,966.05
2016-11-30T03:10:02.867Z,966.05
2016-11-30T03:11:02.877Z,966.08
2016-11-30T03:12:02.888Z,966.06
2016-11-30T03:13:02.896Z,966.06
2016-11-30T03:14:02.906Z,966.08
2016-11-30T03:15:02.917Z,966.11
2016-11-30T03:16:02.926Z,966.14
2016-11-30T03:17:02.936Z,966.19
2016-11-30T03:18:02.946Z,966.28
2016-11-30T03:19:02.955Z,966.25
2016-11-30T03:20:02.966Z,966.29
2016-11-30T03:21:02.976Z,966.27
2016-11-30T03:22:02.986Z,966.25
2016-11-30T03:23:02.995Z,966.26
2016-11-30T03:24:03.007Z,966.21
2016-11-30T03:25:03.016Z,966.2
2016-11-30T03:26:03.025Z,966.27
2016-11-30T03:27:03.036Z,966.24
2016-11-30T03:28:03.046Z,966.25
2016-11-30T03:29:03.057Z,966.25
2016-11-30T03:30:03.066Z,966.21
2016-11-30T03:31:03.077Z,966.28
2016-11-30T03:32:03.087Z,966.3
2016-11-30T03:33:03.096Z,966.28
2016-11-30T03:34:03.106Z,966.34
2016-11-30T03:35:03.116Z,966.36
2016-11-30T03:36:03.127Z,966.44
2016-11-30T03:37:03.136Z,966.48
2016-11-30T03:38:03.181Z,966.52
2016-11-30T03:39:03.157Z,966.54
2016-11-30T03:40:03.168Z,966.53
2016-11-30T03:41:03.176Z,966.57
2016-11-30T03:42:03.187Z,966.54
2016-11-30T03:43:03.197Z,966.59
2016-11-30T03:44:03.206Z,966.55
2016-11-30T03:45:03.218Z,966.57
2016-11-30T03:46:03.227Z,966.55
2016-11-30T03:47:03.237Z,966.52
2016-11-30T03:48:03.247Z,966.54
2016-11-30T03:49:03.257Z,966.53
2016-11-30T03:50:03.289Z,966.53
2016-11-30T03:51:03.278Z,966.52
2016-11-30T03:52:03.287Z,966.56
2016-11-30T03:53:03.298Z,966.58
2016-11-30T03:54:03.308Z,966.55
2016-11-30T03:55:03.318Z,966.63
2016-11-30T03:56:03.328Z,966.71
2016-11-30T03:57:03.355Z,966.78
2016-11-30T03:58:03.349Z,966.78
2016-11-30T03:59:03.358Z,966.8
2016-11-30T04:00:03.369Z,966.76
2016-11-30T04:01:03.379Z,966.74
2016-11-30T04:02:03.389Z,966.76
2016-11-30T04:03:03.400Z,966.76
2016-11-30T04:04:03.421Z,966.79
2016-11-30T04:05:03.420Z,966.78
2016-11-30T04:06:03.430Z,966.82
2016-11-30T04:07:03.442Z,966.86
2016-11-30T04:08:03.451Z,966.87
2016-11-30T04:09:03.461Z,966.87
2016-11-30T04:10:03.471Z,966.91
2016-11-30T04:11:03.486Z,966.89
2016-11-30T04:12:03.492Z,966.92
2016-11-30T04:13:03.500Z,966.89
2016-11-30T04:14:03.510Z,966.9
2016-11-30T04:15:03.521Z,966.9
2016-11-30T04:16:03.531Z,966.89
2016-11-30T04:17:03.540Z,966.83
2016-11-30T04:18:03.552Z,966.84
2016-11-30T04:19:03.561Z,966.81
2016-11-30T04:20:03.571Z,966.86
2016-11-30T04:21:03.579Z,966.82
2016-11-30T04:22:03.591Z,966.82
2016-11-30T04:23:03.601Z,966.77
2016-11-30T04:24:03.610Z,966.72
2016-11-30T04:25:03.630Z,966.77
2016-11-30T04:26:03.629Z,966.67
2016-11-30T04:27:03.641Z,966.7
2016-11-30T04:28:03.650Z,966.72
2016-11-30T04:29:03.660Z,966.71
2016-11-30T04:30:03.671Z,966.69
2016-11-30T04:31:03.680Z,966.65
2016-11-30T04:32:03.691Z,966.68
2016-11-30T04:33:03.699Z,966.79
2016-11-30T04:34:03.710Z,966.75
2016-11-30T04:35:03.720Z,966.74
2016-11-30T04:36:03.729Z,966.76
2016-11-30T04:37:03.757Z,966.72
2016-11-30T04:38:03.751Z,966.73
2016-11-30T04:39:03.773Z,966.66
2016-11-30T04:40:03.768Z,966.67
2016-11-30T04:41:03.779Z,966.7
2016-11-30T04:42:03.789Z,966.67
2016-11-30T04:43:03.798Z,966.67
2016-11-30T04:44:03.909Z,966.67
2016-11-30T04:45:03.818Z,966.69
2016-11-30T04:46:03.827Z,966.63
2016-11-30T04:47:03.837Z,966.65
2016-11-30T04:48:03.847Z,966.64
2016-11-30T04:49:03.859Z,966.56
2016-11-30T04:50:03.866Z,966.59
2016-11-30T04:51:03.876Z,966.52
2016-11-30T04:52:03.887Z,966.52
2016-11-30T04:53:03.898Z,966.4
2016-11-30T04:54:03.905Z,966.44
2016-11-30T04:55:03.915Z,966.45
2016-11-30T04:56:03.926Z,966.43
2016-11-30T04:57:03.935Z,966.4
2016-11-30T04:58:03.944Z,966.41
2016-11-30T04:59:03.954Z,966.36
2016-11-30T05:00:03.968Z,966.36
2016-11-30T05:01:03.974Z,966.37
2016-11-30T05:02:03.983Z,966.33
2016-11-30T05:03:03.992Z,966.34
2016-11-30T05:04:04.003Z,966.32
2016-11-30T05:05:04.012Z,966.37
2016-11-30T05:06:04.021Z,966.37
2016-11-30T05:07:04.031Z,966.37
2016-11-30T05:08:04.040Z,966.43
2016-11-30T05:09:04.050Z,966.46
2016-11-30T05:10:04.062Z,966.46
2016-11-30T05:11:04.070Z,966.48
2016-11-30T05:12:04.079Z,966.51
2016-11-30T05:13:04.089Z,966.55
2016-11-30T05:14:04.100Z,966.59
2016-11-30T05:15:04.110Z,966.61
2016-11-30T05:16:04.121Z,966.59
2016-11-30T05:17:04.128Z,966.57
2016-11-30T05:18:04.139Z,966.56
2016-11-30T05:19:04.147Z,966.5
2016-11-30T05:20:04.161Z,966.5
2016-11-30T05:21:04.168Z,966.51
2016-11-30T05:22:04.179Z,966.58
2016-11-30T05:23:04.187Z,966.58
2016-11-30T05:24:04.197Z,966.63
2016-11-30T05:25:04.208Z,966.65
2016-11-30T05:26:04.219Z,966.72
2016-11-30T05:27:04.227Z,966.67
2016-11-30T05:28:04.238Z,966.71
2016-11-30T05:29:04.248Z,966.74
2016-11-30T05:30:04.260Z,966.79
2016-11-30T05:31:04.267Z,966.82
2016-11-30T05:32:04.277Z,966.85
2016-11-30T05:33:04.287Z,966.87
2016-11-30T05:34:04.296Z,966.91
2016-11-30T05:35:04.307Z,966.97
2016-11-30T05:37:04.327Z,967.05
2016-11-30T05:38:04.337Z,967.1
2016-11-30T05:39:04.348Z,967.11
2016-11-30T05:40:04.358Z,967.11
2016-11-30T05:41:04.369Z,967.13
2016-11-30T05:42:04.379Z,967.18
2016-11-30T05:43:04.388Z,967.23
2016-11-30T05:44:04.398Z,967.24
2016-11-30T05:45:04.408Z,967.24
2016-11-30T05:46:04.419Z,967.25
2016-11-30T05:47:04.430Z,967.29
2016-11-30T05:48:04.437Z,967.28
2016-11-30T05:49:04.447Z,967.28
2016-11-30T05:50:04.458Z,967.19
2016-11-30T05:51:04.470Z,967.14
2016-11-30T05:52:04.478Z,967.13
2016-11-30T05:53:04.487Z,967.1
2016-11-30T05:54:04.497Z,967.09
2016-11-30T05:55:04.507Z,967.1
2016-11-30T05:56:04.516Z,967.12
2016-11-30T05:57:04.527Z,967.16
2016-11-30T05:58:04.536Z,967.22
2016-11-30T05:59:04.545Z,967.2
2016-11-30T06:00:04.556Z,967.25
2016-11-30T06:01:04.565Z,967.24
2016-11-30T06:02:04.575Z,967.18
2016-11-30T06:03:04.584Z,967.17
2016-11-30T06:04:04.595Z,967.14
2016-11-30T06:05:04.604Z,967.13
2016-11-30T06:06:04.614Z,967.13
2016-11-30T06:07:04.623Z,967.14
2016-11-30T06:08:04.633Z,967.1
2016-11-30T06:09:04.644Z,967.07
2016-11-30T06:10:04.652Z,967.05
2016-11-30T06:11:04.663Z,967.03
2016-11-30T06:12:04.672Z,967.06
2016-11-30T06:13:04.682Z,967.02
2016-11-30T06:14:04.692Z,967.11
2016-11-30T06:15:04.702Z,967.16
2016-11-30T06:16:04.712Z,967.15
2016-11-30T06:17:04.721Z,967.22
2016-11-30T06:18:04.752Z,967.27
2016-11-30T06:19:04.743Z,967.29
2016-11-30T06:20:04.752Z,967.27
2016-11-30T06:21:04.760Z,967.26
2016-11-30T06:22:04.771Z,967.29
2016-11-30T06:23:04.781Z,967.28
2016-11-30T06:24:04.791Z,967.34
2016-11-30T06:25:04.818Z,967.37
2016-11-30T06:26:04.811Z,967.49
2016-11-30T06:27:04.821Z,967.54
2016-11-30T06:28:04.833Z,967.56
2016-11-30T06:29:04.840Z,967.53
2016-11-30T06:30:04.852Z,967.51
2016-11-30T06:31:04.861Z,967.49
2016-11-30T06:32:04.882Z,967.53
2016-11-30T06:33:04.881Z,967.55
2016-11-30T06:34:04.892Z,967.58
2016-11-30T06:35:04.901Z,967.59
2016-11-30T06:36:04.911Z,967.57
2016-11-30T06:37:04.922Z,967.57
2016-11-30T06:38:04.933Z,967.54
2016-11-30T06:39:04.948Z,967.53
2016-11-30T06:40:04.951Z,967.52
2016-11-30T06:41:04.961Z,967.53
2016-11-30T06:42:04.972Z,967.54
2016-11-30T06:43:04.986Z,967.56
2016-11-30T06:44:04.991Z,967.47
2016-11-30T06:45:05.002Z,967.5
2016-11-30T06:46:05.014Z,967.43
2016-11-30T06:47:05.022Z,967.42
2016-11-30T06:48:05.033Z,967.41
2016-11-30T06:49:05.043Z,967.36
2016-11-30T06:50:05.053Z,967.31
2016-11-30T06:51:05.063Z,967.28
2016-11-30T06:52:05.073Z,967.26
2016-11-30T06:53:05.084Z,967.26
2016-11-30T06:54:05.093Z,967.26
2016-11-30T06:55:05.104Z,967.31
2016-11-30T06:56:05.114Z,967.32
2016-11-30T06:57:05.125Z,967.31
2016-11-30T06:58:05.134Z,967.36
2016-11-30T06:59:05.145Z,967.31
2016-11-30T07:00:05.160Z,967.32
2016-11-30T07:01:05.167Z,967.25
2016-11-30T07:02:05.175Z,967.3
2016-11-30T07:03:05.186Z,967.27
2016-11-30T07:04:05.196Z,967.27
2016-11-30T07:05:05.205Z,967.25
2016-11-30T07:06:05.216Z,967.32
2016-11-30T07:07:05.228Z,967.27
2016-11-30T07:08:05.238Z,967.3
2016-11-30T07:09:05.247Z,967.3
2016-11-30T07:10:05.259Z,967.29
2016-11-30T07:11:05.268Z,967.28
2016-11-30T07:12:05.278Z,967.32
2016-11-30T07:13:05.289Z,967.27
2016-11-30T07:14:05.299Z,967.25
2016-11-30T07:15:05.310Z,967.2
2016-11-30T07:16:05.320Z,967.15
2016-11-30T07:17:05.331Z,967.17
2016-11-30T07:18:05.341Z,967.06
2016-11-30T07:19:05.351Z,967.04
2016-11-30T07:20:05.361Z,967.07
2016-11-30T07:21:05.372Z,967.05
2016-11-30T07:22:05.382Z,967.1
2016-11-30T07:23:05.392Z,967.1
2016-11-30T07:24:05.403Z,967.23
2016-11-30T07:25:05.414Z,967.19
2016-11-30T07:26:05.424Z,967.22
2016-11-30T07:27:05.434Z,967.18
2016-11-30T07:28:05.463Z,967.17
2016-11-30T07:29:05.455Z,967.17
2016-11-30T07:30:05.466Z,967.13
2016-11-30T07:31:05.479Z,967.1
2016-11-30T07:32:05.487Z,967.08
2016-11-30T07:33:05.510Z,967.07
2016-11-30T07:34:05.512Z,967.05
2016-11-30T07:35:05.527Z,967.04
2016-11-30T07:36:05.529Z,967.04
2016-11-30T07:37:05.540Z,967.02
2016-11-30T07:38:05.550Z,966.98
2016-11-30T07:39:05.560Z,967
2016-11-30T07:40:05.573Z,966.98
2016-11-30T07:41:05.583Z,966.98
2016-11-30T07:42:05.593Z,966.99
2016-11-30T07:43:05.604Z,967.03
2016-11-30T07:44:05.617Z,966.93
2016-11-30T07:45:05.626Z,966.94
2016-11-30T07:46:05.635Z,966.8
2016-11-30T07:47:05.647Z,966.79
2016-11-30T07:48:05.658Z,966.81
2016-11-30T07:49:05.669Z,966.8
2016-11-30T07:50:05.679Z,966.8
2016-11-30T07:51:05.691Z,966.81
2016-11-30T07:52:05.702Z,966.8
2016-11-30T07:53:05.714Z,966.85
2016-11-30T07:54:05.722Z,966.84
2016-11-30T07:55:05.734Z,966.87
2016-11-30T07:56:05.746Z,966.91
2016-11-30T07:57:05.756Z,966.96
2016-11-30T07:58:05.768Z,966.93
2016-11-30T07:59:05.777Z,966.92
2016-11-30T08:00:05.787Z,966.95
2016-11-30T08:01:05.799Z,966.95
2016-11-30T08:02:05.810Z,966.92
2016-11-30T08:03:05.821Z,966.93
2016-11-30T08:04:05.831Z,966.94
2016-11-30T08:05:05.843Z,966.93
2016-11-30T08:06:05.854Z,966.93
2016-11-30T08:07:05.866Z,966.97
2016-11-30T08:08:05.876Z,966.98
2016-11-30T08:09:05.887Z,966.99
2016-11-30T08:10:05.899Z,967.02
2016-11-30T08:11:05.909Z,967.05
2016-11-30T08:12:05.920Z,967.05
2016-11-30T08:13:05.932Z,967.1
2016-11-30T08:14:05.944Z,967.13
2016-11-30T08:15:05.955Z,967.17
2016-11-30T08:16:05.966Z,967.2
2016-11-30T08:17:05.978Z,967.19
2016-11-30T08:18:05.988Z,967.25
2016-11-30T08:19:06.000Z,967.24
2016-11-30T08:20:06.011Z,967.26
2016-11-30T08:21:06.023Z,967.24
2016-11-30T08:22:06.034Z,967.32
2016-11-30T08:23:06.045Z,967.31
2016-11-30T08:24:06.057Z,967.26
2016-11-30T08:25:06.081Z,967.23
2016-11-30T08:26:06.080Z,967.23
2016-11-30T08:27:06.092Z,967.2
2016-11-30T08:28:06.104Z,967.17
2016-11-30T08:29:06.115Z,967.13
2016-11-30T08:30:06.127Z,967.06
2016-11-30T08:31:06.139Z,967
2016-11-30T08:32:06.151Z,967.02
2016-11-30T08:33:06.164Z,966.98
2016-11-30T08:34:06.174Z,966.96
2016-11-30T08:35:06.186Z,966.91
2016-11-30T08:36:06.199Z,966.85
2016-11-30T08:37:06.210Z,966.86
2016-11-30T08:38:06.223Z,966.84
2016-11-30T08:39:06.237Z,966.79
2016-11-30T08:40:06.245Z,966.79
2016-11-30T08:41:06.258Z,966.78
2016-11-30T08:42:06.270Z,966.78
2016-11-30T08:43:06.282Z,966.78
2016-11-30T08:44:06.293Z,966.76
2016-11-30T08:45:06.306Z,966.78
2016-11-30T08:46:06.336Z,966.78
2016-11-30T08:47:06.330Z,966.78
2016-11-30T08:48:06.343Z,966.76
2016-11-30T08:49:06.355Z,966.83
2016-11-30T08:50:06.367Z,966.83
2016-11-30T08:51:06.380Z,966.88
2016-11-30T08:52:06.391Z,966.86
2016-11-30T08:53:06.404Z,966.86
2016-11-30T08:54:06.416Z,966.91
2016-11-30T08:55:06.428Z,966.91
2016-11-30T08:56:06.441Z,966.95
2016-11-30T08:57:06.453Z,966.92
2016-11-30T08:58:06.465Z,966.93
2016-11-30T08:59:06.477Z,966.96
2016-11-30T09:00:06.490Z,966.89
2016-11-30T09:01:06.503Z,966.93
2016-11-30T09:02:06.515Z,966.92
2016-11-30T09:03:06.528Z,966.91
2016-11-30T09:04:06.541Z,966.91
2016-11-30T09:05:06.554Z,966.97
2016-11-30T09:06:06.567Z,966.99
2016-11-30T09:07:06.579Z,966.97
2016-11-30T09:08:06.594Z,966.97
2016-11-30T09:09:06.607Z,966.96
2016-11-30T09:10:06.620Z,966.97
2016-11-30T09:11:06.637Z,966.98
2016-11-30T09:12:06.648Z,966.99
2016-11-30T09:13:06.662Z,966.97
2016-11-30T09:14:06.677Z,966.93
2016-11-30T09:15:06.692Z,966.87
2016-11-30T09:16:06.707Z,966.85
2016-11-30T09:17:06.720Z,966.84
2016-11-30T09:18:06.739Z,966.81
2016-11-30T09:19:06.751Z,966.81
2016-11-30T09:20:06.767Z,966.83
2016-11-30T09:21:06.781Z,966.76
2016-11-30T09:22:06.816Z,966.8
2016-11-30T09:23:06.812Z,966.82
2016-11-30T09:24:06.829Z,966.74
2016-11-30T09:25:06.844Z,966.76
2016-11-30T09:26:06.859Z,966.77
2016-11-30T09:27:06.875Z,966.76
2016-11-30T09:28:06.890Z,966.7
2016-11-30T09:29:06.907Z,966.72
2016-11-30T09:30:06.923Z,966.67
2016-11-30T09:31:06.938Z,966.72
2016-11-30T09:32:06.956Z,966.72
2016-11-30T09:33:06.973Z,966.76
2016-11-30T09:34:06.989Z,966.75
2016-11-30T09:35:07.006Z,966.78
2016-11-30T09:36:07.030Z,966.71
2016-11-30T09:37:07.041Z,966.74
2016-11-30T09:38:07.058Z,966.77
2016-11-30T09:39:07.084Z,966.81
2016-11-30T09:40:07.092Z,966.83
2016-11-30T09:41:07.119Z,966.81
2016-11-30T09:42:07.127Z,966.88
2016-11-30T09:43:07.151Z,966.91
2016-11-30T09:44:07.166Z,967
2016-11-30T09:45:07.183Z,967
2016-11-30T09:46:07.200Z,967.01
2016-11-30T09:47:07.227Z,966.97
2016-11-30T09:48:07.237Z,966.96
2016-11-30T09:49:07.256Z,966.96
2016-11-30T09:50:07.281Z,967.01
2016-11-30T09:51:07.292Z,966.97
2016-11-30T09:52:07.323Z,966.95
2016-11-30T09:53:07.328Z,966.96
2016-11-30T09:54:07.346Z,966.98
2016-11-30T09:55:07.366Z,966.99
2016-11-30T09:56:07.384Z,966.97
2016-11-30T09:57:07.406Z,966.97
2016-11-30T09:58:07.421Z,966.94
2016-11-30T09:59:07.448Z,966.94
2016-11-30T10:00:07.456Z,966.93
2016-11-30T10:01:07.475Z,966.94
2016-11-30T10:02:07.495Z,966.97
2016-11-30T10:03:07.512Z,966.96
2016-11-30T10:04:07.530Z,966.96
2016-11-30T10:05:07.549Z,966.93
2016-11-30T10:06:07.568Z,966.93
2016-11-30T10:07:07.607Z,966.93
2016-11-30T10:08:07.605Z,966.94
2016-11-30T10:09:07.622Z,966.95
2016-11-30T10:10:07.641Z,966.9
2016-11-30T10:11:07.667Z,966.93
2016-11-30T10:12:07.678Z,966.89
2016-11-30T10:13:07.702Z,966.9
2016-11-30T10:14:07.732Z,966.93
2016-11-30T10:15:07.736Z,966.87
2016-11-30T10:16:07.752Z,966.87
2016-11-30T10:17:07.772Z,966.84
2016-11-30T10:18:07.801Z,966.88
2016-11-30T10:19:07.816Z,966.86
2016-11-30T10:20:07.827Z,966.89
2016-11-30T10:21:07.846Z,966.9
2016-11-30T10:22:07.866Z,966.87
2016-11-30T10:23:07.915Z,966.84
2016-11-30T10:24:07.903Z,966.83
2016-11-30T10:25:07.925Z,966.83
2016-11-30T10:26:07.942Z,966.82
2016-11-30T10:27:07.967Z,966.81
2016-11-30T10:28:07.980Z,966.83
2016-11-30T10:29:08.018Z,966.85
2016-11-30T10:30:08.018Z,966.9
2016-11-30T10:31:08.038Z,966.85
2016-11-30T10:32:08.057Z,966.86
2016-11-30T10:33:08.076Z,966.87
2016-11-30T10:34:08.098Z,966.88
2016-11-30T10:35:08.115Z,966.86
2016-11-30T10:36:08.135Z,966.84
2016-11-30T10:37:08.174Z,966.88
2016-11-30T10:38:08.174Z,966.85
2016-11-30T10:39:08.195Z,966.88
2016-11-30T10:40:08.215Z,966.88
2016-11-30T10:41:08.239Z,966.86
2016-11-30T10:42:08.252Z,966.89
2016-11-30T10:43:08.273Z,966.88
2016-11-30T10:44:08.302Z,966.86
2016-11-30T10:45:08.323Z,966.83
2016-11-30T10:46:08.331Z,966.89
2016-11-30T10:47:08.351Z,966.92
2016-11-30T10:48:08.370Z,966.91
2016-11-30T10:49:08.390Z,966.88
2016-11-30T10:50:08.412Z,966.89
2016-11-30T10:51:08.430Z,966.84
2016-11-30T10:52:08.457Z,966.85
2016-11-30T10:53:08.469Z,966.86
2016-11-30T10:54:08.489Z,966.82
2016-11-30T10:55:08.508Z,966.83
2016-11-30T10:56:08.528Z,966.8
2016-11-30T10:57:08.548Z,966.73
2016-11-30T10:58:08.568Z,966.74
2016-11-30T10:59:08.588Z,966.72
2016-11-30T11:00:08.606Z,966.69
2016-11-30T11:01:08.628Z,966.66
2016-11-30T11:02:08.646Z,966.64
2016-11-30T11:03:08.672Z,966.67
2016-11-30T11:04:08.684Z,966.64
2016-11-30T11:05:08.711Z,966.64
2016-11-30T11:06:08.723Z,966.63
2016-11-30T11:07:08.743Z,966.59
2016-11-30T11:08:08.763Z,966.62
2016-11-30T11:09:08.793Z,966.57
2016-11-30T11:10:08.801Z,966.55
2016-11-30T11:11:08.821Z,966.57
2016-11-30T11:12:08.840Z,966.53
2016-11-30T11:13:08.861Z,966.48
2016-11-30T11:14:08.880Z,966.48
2016-11-30T11:15:08.901Z,966.43
2016-11-30T11:16:08.919Z,966.44
2016-11-30T11:17:08.944Z,966.43
2016-11-30T11:18:08.961Z,966.4
2016-11-30T11:19:08.978Z,966.38
2016-11-30T11:20:08.998Z,966.39
2016-11-30T11:21:09.017Z,966.35
2016-11-30T11:22:09.063Z,966.33
2016-11-30T11:23:09.057Z,966.28
2016-11-30T11:24:09.076Z,966.27
2016-11-30T11:25:09.095Z,966.28
2016-11-30T11:26:09.115Z,966.26
2016-11-30T11:27:09.135Z,966.27
2016-11-30T11:28:09.154Z,966.25
2016-11-30T11:29:09.183Z,966.19
2016-11-30T11:30:09.195Z,966.22
2016-11-30T11:31:09.215Z,966.25
2016-11-30T11:32:09.233Z,966.19
2016-11-30T11:33:09.263Z,966.2
2016-11-30T11:34:09.273Z,966.21
2016-11-30T11:35:09.307Z,966.17
2016-11-30T11:36:09.313Z,966.12
2016-11-30T11:37:09.332Z,966.12
2016-11-30T11:38:09.352Z,966.05
2016-11-30T11:39:09.372Z,966.07
2016-11-30T11:40:09.392Z,966.07
2016-11-30T11:41:09.423Z,966.02
2016-11-30T11:42:09.434Z,966.03
2016-11-30T11:43:09.452Z,966
2016-11-30T11:44:09.494Z,966
2016-11-30T11:45:09.499Z,965.88
2016-11-30T11:46:09.518Z,965.88
2016-11-30T11:47:09.532Z,965.89
2016-11-30T11:48:09.553Z,965.82
2016-11-30T11:49:09.590Z,965.82
2016-11-30T11:50:09.592Z,965.84
2016-11-30T11:51:09.614Z,965.82
2016-11-30T11:52:09.652Z,965.77
2016-11-30T11:53:09.653Z,965.8
2016-11-30T11:54:09.674Z,965.88
2016-11-30T11:55:09.693Z,965.84
2016-11-30T11:56:09.714Z,965.8
2016-11-30T11:57:09.737Z,965.85
2016-11-30T11:58:09.756Z,965.87
2016-11-30T11:59:09.775Z,965.87
2016-11-30T12:00:09.807Z,965.94
2016-11-30T12:01:09.815Z,965.98
2016-11-30T12:02:09.853Z,966
2016-11-30T12:03:09.857Z,965.94
2016-11-30T12:04:09.930Z,965.99
2016-11-30T12:05:09.897Z,965.98
2016-11-30T12:06:09.917Z,965.99
2016-11-30T12:07:09.945Z,965.92
2016-11-30T12:08:09.957Z,966
2016-11-30T12:09:09.982Z,965.94
2016-11-30T12:10:09.998Z,965.93
2016-11-30T12:11:10.020Z,965.97
2016-11-30T12:12:10.041Z,966.02
2016-11-30T12:13:10.069Z,966.03
2016-11-30T12:14:10.081Z,965.99
2016-11-30T12:15:10.102Z,966.04
2016-11-30T12:16:10.121Z,966.08
2016-11-30T12:17:10.142Z,966.09
2016-11-30T12:18:10.162Z,966.09
2016-11-30T12:19:10.182Z,966.12
2016-11-30T12:20:10.202Z,966.1
2016-11-30T12:21:10.223Z,966.1
2016-11-30T12:22:10.244Z,966.12
2016-11-30T12:23:10.264Z,966.1
2016-11-30T12:24:10.284Z,966.09
2016-11-30T12:25:10.308Z,966.07
2016-11-30T12:26:10.326Z,966.09
2016-11-30T12:27:10.346Z,966.06
2016-11-30T12:28:10.366Z,966.14
2016-11-30T12:29:10.387Z,966.14
2016-11-30T12:30:10.407Z,966.15
2016-11-30T12:31:10.431Z,966.12
2016-11-30T12:32:10.447Z,966.11